• Join FlightAware (Why Join?)
  • Login
  • US Flag 
07:20AM EDT


 

Airport Tracker/Info


-or-


 

Live Flight TrackerFlight Track Log ✈ DAL268 ✈ 14-Sep-2013 ✈ KJFK - LLBG / TLV

Flight Track Log - Related Links

Times and Time Zones

All times are in EDT time to prevent confusion due to time zone crossing. See the DAL268 flight status page for this flight to view local times or setup timezone preferences in your user account.

Time Position Orientation Groundspeed Altitude Reporting Facility
EDT Latitude Longitude Course Direction KTS MPH feet Rate Location/Type
12:15AM 40.6333 -73.8667 72° East 210 242 2,200  Level New York TRACON
12:16AM 40.5833 -73.8833 194° South 221 254 3,900 1,500 Climbing New York TRACON
12:17AM 40.9013 -73.2969 66° East  Level Estimated
12:18AM 40.9880 -73.1353 66° East  Level Estimated
12:19AM 41.0745 -72.9734 69° East  Level Estimated
12:19AM 40.5553 -73.6883 101° East 245 282 7,100  Level Boston Center
12:20AM 41.1608 -72.8110 72° East  Level Estimated
12:20AM 40.5567 -73.5708 89° East 283 326 9,500  Level Boston Center
12:21AM 41.2459 -72.6499 72° East  Level Estimated
12:21AM 40.5578 -73.4481 89° East 315 362 11,100  Level Boston Center
12:22AM 40.5569 -73.3058 90° East 355 409 12,400 1,560 Climbing Boston Center
12:23AM 40.5558 -73.1503 90° East 399 459 14,400 1,920 Climbing Boston Center
12:24AM 40.5653 -72.9892 86° East 420 483 16,300 1,800 Climbing Boston Center
12:25AM 40.6367 -72.8639 53° Northeast 409 471 18,000 1,680 Climbing Boston Center
12:26AM 40.7203 -72.7686 41° Northeast 414 476 19,700 1,680 Climbing Boston Center
12:27AM 40.8164 -72.6650 39° Northeast 420 483 21,400 1,620 Climbing Boston Center
12:28AM 40.9103 -72.5553 41° Northeast 435 501 23,000 1,500 Climbing Boston Center
12:29AM 41.0061 -72.4428 42° Northeast 448 516 24,400 1,320 Climbing Boston Center
12:30AM 41.1042 -72.3244 42° Northeast 463 533 25,700 1,200 Climbing Boston Center
12:31AM 41.2039 -72.2111 41° Northeast 468 539 26,900 1,200 Climbing Boston Center
12:32AM 41.3036 -72.0892 43° Northeast 468 539 28,100 1,320 Climbing Boston Center
12:33AM 41.4011 -71.9697 43° Northeast 468 539 29,600 1,260 Climbing Boston Center
12:34AM 41.5006 -71.8525 41° Northeast 468 539 30,700 660 Climbing Boston Center
12:35AM 41.6019 -71.7322 42° Northeast 468 539 31,000 120 Climbing Boston Center
12:36AM 41.6992 -71.6117 43° Northeast 468 539 31,000  Level Boston Center
12:37AM 41.8025 -71.4961 40° Northeast 468 539 31,000  Level Boston Center
12:38AM 41.8994 -71.3747 43° Northeast 474 545 31,000  Level Boston Center
12:39AM 42.0003 -71.2528 42° Northeast 479 551 31,000  Level Boston Center
12:40AM 42.1011 -71.1306 42° Northeast 479 551 31,000  Level Boston Center
12:41AM 42.1997 -71.0081 43° Northeast 479 551 31,000  Level Boston Center
12:42AM 42.2958 -70.8822 44° Northeast 479 551 31,000  Level Boston Center
12:43AM 42.3922 -70.7589 43° Northeast 479 551 31,000  Level Boston Center
12:44AM 42.4903 -70.6353 43° Northeast 479 551 31,000  Level Boston Center
12:45AM 42.5986 -70.4994 43° Northeast 479 551 31,000  Level Boston Center
12:46AM 42.6842 -70.3894 43° Northeast 479 551 31,000  Level Boston Center
12:47AM 42.7819 -70.2647 43° Northeast 479 551 31,000  Level Boston Center
12:48AM 42.8936 -70.1247 43° Northeast 479 551 31,000  Level Boston Center
12:49AM 42.9892 -69.9989 44° Northeast 479 551 31,000  Level Boston Center
12:50AM 43.0864 -69.8728 43° Northeast 484 557 31,000  Level Boston Center
12:51AM 43.1711 -69.7583 45° Northeast 484 557 31,000  Level Boston Center
12:52AM 43.2825 -69.6164 43° Northeast 484 557 31,000  Level Boston Center
12:53AM 43.3592 -69.5128 44° Northeast 484 557 31,000  Level Boston Center
12:54AM 43.4658 -69.3703 44° Northeast 489 563 31,000  Level Boston Center
12:55AM 43.5644 -69.2422 43° Northeast 489 563 31,000  Level Boston Center
12:56AM 43.6669 -69.1075 44° Northeast 489 563 31,000  Level Boston Center
12:57AM 43.7653 -68.9756 44° Northeast 489 563 31,000  Level Boston Center
12:58AM 43.8672 -68.8400 44° Northeast 494 568 31,000  Level Boston Center
12:59AM 43.9692 -68.7039 44° Northeast 494 568 31,000  Level Boston Center
01:00AM 44.0808 -68.5497 45° Northeast 499 574 31,000  Level Boston Center
01:01AM 44.1844 -68.4094 44° Northeast 509 586 31,000  Level Boston Center
01:02AM 44.2897 -68.2631 45° Northeast 522 601 31,000  Level Boston Center
01:03AM 44.3989 -68.1158 44° Northeast 527 606 31,000  Level Boston Center
01:04AM 44.5078 -67.9653 45° Northeast 537 618 31,000  Level Boston Center
01:05AM 44.6164 -67.8139 45° Northeast 548 631 31,000  Level Boston Center
01:06AM 44.7072 -67.6839 45° Northeast 548 631 31,000  Level Boston Center
01:07AM 44.8272 -67.5161 45° Northeast 553 636 31,000  Level Boston Center
01:08AM 44.9372 -67.3572 46° Northeast 553 636 31,000  Level Boston Center
01:10AM 45.1833 -66.9833 47° Northeast 570 656 31,000  Level Moncton Center
01:11AM 45.3000 -66.8167 45° Northeast 570 656 31,000  Level Moncton Center
01:12AM 45.4000 -66.6667 46° Northeast 570 656 31,000  Level Moncton Center
01:13AM 45.5167 -66.5000 45° Northeast 580 667 31,000  Level Moncton Center
01:14AM 45.6167 -66.3333 49° Northeast 590 679 31,000  Level Moncton Center
01:15AM 45.7500 -66.1500 44° Northeast 590 679 31,000  Level Moncton Center
01:16AM 45.8500 -65.9833 49° Northeast 590 679 31,000  Level Moncton Center
01:17AM 45.9667 -65.8167 45° Northeast 590 679 31,000  Level Moncton Center
01:18AM 46.0833 -65.6500 45° Northeast 590 679 31,000  Level Moncton Center
01:19AM 46.1833 -65.4833 49° Northeast 590 679 31,000  Level Moncton Center
01:20AM 46.3000 -65.3000 47° Northeast 590 679 31,000  Level Moncton Center
01:21AM 46.4333 -65.1333 41° Northeast 590 679 31,000  Level Moncton Center
01:22AM 46.5333 -64.9500 52° Northeast 580 667 31,000  Level Moncton Center
01:23AM 46.6500 -64.7833 44° Northeast 580 667 31,000  Level Moncton Center
01:24AM 46.7667 -64.6000 47° Northeast 590 679 31,000  Level Moncton Center
01:25AM 46.8667 -64.4167 51° Northeast 590 679 31,000  Level Moncton Center
01:26AM 46.9833 -64.2500 44° Northeast 590 679 31,000  Level Moncton Center
01:27AM 47.1000 -64.0833 44° Northeast 590 679 31,000  Level Moncton Center
01:28AM 47.2000 -63.9000 51° Northeast 590 679 31,000  Level Moncton Center
01:29AM 47.3167 -63.7000 49° Northeast 590 679 31,000  Level Moncton Center
01:30AM 47.4167 -63.5333 48° Northeast 590 679 31,000  Level Moncton Center
01:31AM 47.5333 -63.3500 47° Northeast 590 679 31,000  Level Moncton Center
01:32AM 47.6500 -63.1833 44° Northeast 590 679 31,000  Level Moncton Center
01:33AM 47.7333 -62.9833 58° Northeast 580 667 31,000  Level Moncton Center
01:34AM 47.8500 -62.8000 46° Northeast 580 667 31,000  Level Moncton Center
01:35AM 47.9667 -62.6167 46° Northeast 580 667 31,000  Level Moncton Center
01:36AM 48.0667 -62.4500 48° Northeast 580 667 31,000  Level Moncton Center
01:37AM 48.1667 -62.2667 51° Northeast 580 667 31,000  Level Moncton Center
01:38AM 48.2833 -62.0833 46° Northeast 580 667 31,000  Level Moncton Center
01:39AM 48.3833 -61.9000 51° Northeast 580 667 31,000  Level Moncton Center
01:40AM 48.4833 -61.7167 51° Northeast 570 656 31,000  Level Moncton Center
01:41AM 48.5833 -61.5333 50° Northeast 580 667 31,000  Level Moncton Center
01:42AM 48.6833 -61.3500 50° Northeast 570 656 31,000  Level Moncton Center
01:43AM 48.8000 -61.1667 46° Northeast 570 656 31,000  Level Moncton Center
01:44AM 48.8833 -60.9833 55° Northeast 560 644 31,000  Level Moncton Center
01:45AM 49.0000 -60.8000 46° Northeast 570 656 31,000  Level Moncton Center
01:46AM 49.1000 -60.6167 50° Northeast 570 656 31,000  Level Moncton Center
01:47AM 49.2000 -60.4167 53° Northeast 560 644 31,000  Level Moncton Center
01:48AM 49.3000 -60.2333 50° Northeast 560 644 31,000  Level Moncton Center
01:49AM 49.4000 -60.0500 50° Northeast 560 644 31,000  Level Moncton Center
01:50AM 49.5000 -59.8833 47° Northeast 570 656 31,000  Level Moncton Center
01:51AM 49.6000 -59.7000 50° Northeast 570 656 31,000  Level Moncton Center
01:52AM 49.7000 -59.4833 54° Northeast 570 656 31,000  Level Moncton Center
01:53AM 49.8000 -59.3167 47° Northeast 570 656 31,000  Level Moncton Center
01:54AM 49.8833 -59.1000 59° Northeast 570 656 31,000  Level Moncton Center
01:55AM 50.0000 -58.9167 45° Northeast 570 656 31,000  Level Moncton Center
01:56AM 50.0667 -58.7000 64° Northeast 570 656 31,000 420 Level Moncton Center
01:57AM 50.1833 -58.5167 45° Northeast 570 656 31,900 960 Climbing Moncton Center
01:58AM 50.2500 -58.3000 64° Northeast 570 656 33,000 540 Climbing Moncton Center
01:59AM 50.3500 -58.1000 52° Northeast 570 656 33,000  Level Moncton Center
02:00AM 50.4333 -57.9000 57° Northeast 570 656 33,000  Level Moncton Center
02:01AM 50.5167 -57.6833 59° Northeast 560 644 33,000  Level Moncton Center
02:02AM 50.6167 -57.4833 52° Northeast 560 644 33,000  Level Moncton Center
02:03AM 50.7000 -57.2833 57° Northeast 560 644 33,000  Level Moncton Center
02:04AM 50.7667 -57.0667 64° Northeast 570 656 33,000  Level Moncton Center
02:05AM 50.8667 -56.8667 52° Northeast 560 644 33,000  Level Moncton Center
02:06AM 50.9667 -56.6333 56° Northeast 570 656 33,000  Level Moncton Center
02:07AM 51.0333 -56.4333 62° Northeast 560 644 33,000  Level Moncton Center
02:08AM 51.1500 -56.1667 55° Northeast 560 644 33,000  Level Gander Center
02:09AM 51.2333 -55.9333 60° Northeast 570 656 33,000  Level Gander Center
02:10AM 51.3167 -55.7333 56° Northeast 560 644 33,000  Level Gander Center
02:11AM 51.4000 -55.5167 58° Northeast 560 644 33,000  Level Gander Center
02:12AM 51.4833 -55.2833 60° Northeast 560 644 33,000  Level Gander Center
02:13AM 51.5667 -55.0833 56° Northeast 560 644 33,000  Level Gander Center
02:14AM 51.6500 -54.8667 58° Northeast 570 656 33,000  Level Gander Center
02:15AM 51.7167 -54.6667 62° Northeast 560 644 33,000  Level Gander Center
02:16AM 51.8167 -54.4333 55° Northeast 560 644 33,000  Level Gander Center
02:17AM 51.8833 -54.2333 62° Northeast 560 644 33,000  Level Gander Center
02:18AM 51.9667 -54.0000 60° Northeast 560 644 33,000  Level Gander Center
02:19AM 52.0333 -53.8000 61° Northeast 560 644 33,000  Level Gander Center
02:20AM 52.1167 -53.5667 60° Northeast 550 633 33,000  Level Gander Center
02:21AM 52.2000 -53.3667 56° Northeast 550 633 33,000  Level Gander Center
02:22AM 52.2667 -53.1333 65° Northeast 560 644 33,000  Level Gander Center
02:23AM 52.3167 -52.9000 71° East 560 644 33,000  Level Gander Center
02:24AM 52.3667 -52.6667 71° East 550 633 33,000  Level Gander Center
02:25AM 52.4333 -52.4167 66° East 560 644 33,000  Level Gander Center
02:26AM 52.4833 -52.1833 71° East 560 644 33,000  Level Gander Center
02:27AM 52.5500 -51.9667 63° Northeast 550 633 33,000  Level Gander Center
02:28AM 52.6000 -51.6833 74° East 560 644 33,000  Level Gander Center
02:29AM 52.6333 -51.5167 72° East 560 644 33,000  Level Gander Center
02:30AM 52.7000 -51.2500 67° East 570 656 33,000  Level Gander Center
02:31AM 52.7500 -51.0167 70° East 560 644 33,000  Level Gander Center
02:32AM 52.8000 -50.7667 72° East 560 644 33,000  Level Gander Center
02:33AM 52.8667 -50.5333 65° Northeast 560 644 33,000  Level Gander Center
02:35AM 52.9833 -50.0000 70° East 560 644 33,000  Level Gander Center
02:36AM 53.0000 -49.7500 84° East 550 633 33,000  Level Gander Center
02:38AM 53.0498 -49.4051 76° East  Level FlightAware Approximate
02:45AM 53.2811 -47.6895 77° East  Level FlightAware Approximate
02:46AM 53.3121 -47.4429 78° East  Level FlightAware Approximate
02:47AM 53.3426 -47.1960 78° East  Level FlightAware Approximate
02:48AM 53.3726 -46.9487 78° East  Level FlightAware Approximate
02:49AM 53.4021 -46.7011 79° East  Level FlightAware Approximate
02:50AM 53.4310 -46.4532 79° East  Level FlightAware Approximate
02:51AM 53.4595 -46.2049 79° East  Level FlightAware Approximate
02:52AM 53.4874 -45.9562 79° East  Level FlightAware Approximate
02:53AM 53.5149 -45.7073 79° East  Level FlightAware Approximate
02:54AM 53.5418 -45.4580 80° East  Level FlightAware Approximate
02:55AM 53.5682 -45.2084 80° East  Level FlightAware Approximate
02:56AM 53.5941 -44.9585 80° East  Level FlightAware Approximate
02:57AM 53.6194 -44.7084 80° East  Level FlightAware Approximate
02:58AM 53.6442 -44.4579 80° East  Level FlightAware Approximate
02:59AM 53.6685 -44.2071 81° East  Level FlightAware Approximate
03:00AM 53.6923 -43.9560 81° East  Level FlightAware Approximate
03:01AM 53.7156 -43.7047 81° East  Level FlightAware Approximate
03:02AM 53.7383 -43.4530 81° East  Level FlightAware Approximate
03:03AM 53.7605 -43.2011 81° East  Level FlightAware Approximate
03:04AM 53.7822 -42.9490 82° East  Level FlightAware Approximate
03:05AM 53.8033 -42.6966 82° East  Level FlightAware Approximate
03:06AM 53.8241 -42.4434 82° East  Level FlightAware Approximate
03:07AM 53.8447 -42.1906 82° East  Level FlightAware Approximate
03:08AM 53.8647 -41.9376 82° East  Level FlightAware Approximate
03:09AM 53.8842 -41.6843 82° East  Level FlightAware Approximate
03:10AM 53.9032 -41.4308 83° East  Level FlightAware Approximate
03:11AM 53.9216 -41.1770 83° East  Level FlightAware Approximate
03:12AM 53.9395 -40.9230 83° East  Level FlightAware Approximate
03:13AM 53.9569 -40.6688 83° East  Level FlightAware Approximate
03:14AM 53.9738 -40.4145 83° East  Level FlightAware Approximate
03:15AM 53.9901 -40.1599 84° East  Level FlightAware Approximate
03:16AM 54.0039 -39.9048 86° East  Level FlightAware Approximate
03:17AM 54.0141 -39.6491 86° East  Level FlightAware Approximate
03:18AM 54.0237 -39.3933 86° East  Level FlightAware Approximate
03:19AM 54.0328 -39.1374 86° East  Level FlightAware Approximate
03:20AM 54.0413 -38.8814 87° East  Level FlightAware Approximate
03:21AM 54.0493 -38.6253 87° East  Level FlightAware Approximate
03:22AM 54.0567 -38.3690 87° East  Level FlightAware Approximate
03:23AM 54.0636 -38.1127 87° East  Level FlightAware Approximate
03:24AM 54.0700 -37.8563 87° East  Level FlightAware Approximate
03:25AM 54.0758 -37.5999 88° East  Level FlightAware Approximate
03:26AM 54.0811 -37.3433 88° East  Level FlightAware Approximate
03:27AM 54.0858 -37.0867 88° East  Level FlightAware Approximate
03:28AM 54.0899 -36.8301 88° East  Level FlightAware Approximate
03:29AM 54.0936 -36.5734 89° East  Level FlightAware Approximate
03:30AM 54.0966 -36.3166 89° East  Level FlightAware Approximate
03:31AM 54.0992 -36.0599 89° East  Level FlightAware Approximate
03:32AM 54.1011 -35.8031 89° East  Level FlightAware Approximate
03:33AM 54.1026 -35.5462 89° East  Level FlightAware Approximate
03:34AM 54.1035 -35.2894 90° East  Level FlightAware Approximate
03:35AM 54.1038 -35.0325 90° East  Level FlightAware Approximate
03:36AM 54.1036 -34.7757 90° East  Level FlightAware Approximate
03:37AM 54.1029 -34.5188 90° East  Level FlightAware Approximate
03:38AM 54.1016 -34.2620 90° East  Level FlightAware Approximate
03:39AM 54.0997 -34.0052 91° East  Level FlightAware Approximate
03:40AM 54.0973 -33.7484 91° East  Level FlightAware Approximate
03:41AM 54.0944 -33.4917 91° East  Level FlightAware Approximate
03:42AM 54.0909 -33.2350 91° East  Level FlightAware Approximate
03:43AM 54.0869 -32.9783 91° East  Level FlightAware Approximate
03:44AM 54.0823 -32.7217 92° East  Level FlightAware Approximate
03:45AM 54.0772 -32.4651 92° East  Level FlightAware Approximate
03:46AM 54.0715 -32.2087 92° East  Level FlightAware Approximate
03:47AM 54.0653 -31.9523 92° East  Level FlightAware Approximate
03:48AM 54.0585 -31.6959 92° East  Level FlightAware Approximate
03:49AM 54.0512 -31.4397 93° East  Level FlightAware Approximate
03:50AM 54.0434 -31.1835 93° East  Level FlightAware Approximate
03:51AM 54.0350 -30.9275 93° East  Level FlightAware Approximate
03:52AM 54.0261 -30.6730 93° East  Level FlightAware Approximate
03:53AM 54.0167 -30.4185 94° East  Level FlightAware Approximate
03:54AM 54.0067 -30.1642 94° East  Level FlightAware Approximate
03:55AM 53.9948 -29.9102 96° East  Level FlightAware Approximate
03:56AM 53.9799 -29.6568 96° East  Level FlightAware Approximate
03:57AM 53.9643 -29.4035 96° East  Level FlightAware Approximate
03:58AM 53.9483 -29.1505 96° East  Level FlightAware Approximate
03:59AM 53.9317 -28.8976 96° East  Level FlightAware Approximate
04:00AM 53.9146 -28.6449 96° East  Level FlightAware Approximate
04:01AM 53.8970 -28.3925 97° East  Level FlightAware Approximate
04:02AM 53.8788 -28.1402 97° East  Level FlightAware Approximate
04:03AM 53.8601 -27.8882 97° East  Level FlightAware Approximate
04:04AM 53.8409 -27.6364 97° East  Level FlightAware Approximate
04:05AM 53.8212 -27.3849 97° East  Level FlightAware Approximate
04:06AM 53.8009 -27.1336 98° East  Level FlightAware Approximate
04:07AM 53.7801 -26.8825 98° East  Level FlightAware Approximate
04:08AM 53.7588 -26.6317 98° East  Level FlightAware Approximate
04:09AM 53.7369 -26.3811 98° East  Level FlightAware Approximate
04:10AM 53.7146 -26.1308 98° East  Level FlightAware Approximate
04:11AM 53.6917 -25.8808 99° East  Level FlightAware Approximate
04:12AM 53.6683 -25.6311 99° East  Level FlightAware Approximate
04:13AM 53.6444 -25.3816 99° East  Level FlightAware Approximate
04:14AM 53.6199 -25.1324 99° East  Level FlightAware Approximate
04:15AM 53.5950 -24.8835 100° East  Level FlightAware Approximate
04:16AM 53.5699 -24.6348 100° East  Level FlightAware Approximate
04:17AM 53.5443 -24.3864 100° East  Level FlightAware Approximate
04:18AM 53.5181 -24.1383 100° East  Level FlightAware Approximate
04:19AM 53.4914 -23.8905 100° East  Level FlightAware Approximate
04:20AM 53.4642 -23.6430 100° East  Level FlightAware Approximate
04:21AM 53.4366 -23.3959 101° East  Level FlightAware Approximate
04:22AM 53.4084 -23.1491 101° East  Level FlightAware Approximate
04:23AM 53.3797 -22.9026 101° East  Level FlightAware Approximate
04:24AM 53.3504 -22.6564 101° East  Level FlightAware Approximate
04:25AM 53.3207 -22.4106 101° East  Level FlightAware Approximate
04:26AM 53.2905 -22.1651 102° East  Level FlightAware Approximate
04:27AM 53.2597 -21.9195 102° East  Level FlightAware Approximate
04:28AM 53.2284 -21.6743 102° East  Level FlightAware Approximate
04:29AM 53.1966 -21.4295 102° East  Level FlightAware Approximate
04:30AM 53.1643 -21.1850 102° East  Level FlightAware Approximate
04:31AM 53.1315 -20.9409 103° East  Level FlightAware Approximate
04:32AM 53.0983 -20.6971 103° East  Level FlightAware Approximate
04:33AM 53.0645 -20.4538 103° East  Level FlightAware Approximate
04:34AM 53.0302 -20.2108 103° East  Level FlightAware Approximate
04:35AM 52.9988 -19.9674 93° East  Level FlightAware Approximate
04:36AM 52.9897 -19.7186 93° East  Level FlightAware Approximate
04:37AM 52.9801 -19.4699 94° East  Level FlightAware Approximate
04:38AM 52.9699 -19.2213 94° East  Level FlightAware Approximate
04:39AM 52.9592 -18.9728 94° East  Level FlightAware Approximate
04:40AM 52.9480 -18.7245 94° East  Level FlightAware Approximate
04:41AM 52.9363 -18.4763 94° East  Level FlightAware Approximate
04:42AM 52.9240 -18.2282 95° East  Level FlightAware Approximate
04:43AM 52.9113 -17.9803 95° East  Level FlightAware Approximate
04:44AM 52.8980 -17.7325 95° East  Level FlightAware Approximate
04:45AM 52.8842 -17.4849 95° East  Level FlightAware Approximate
04:46AM 52.8699 -17.2374 95° East  Level FlightAware Approximate
04:47AM 52.8551 -16.9901 96° East  Level FlightAware Approximate
04:48AM 52.8397 -16.7430 96° East  Level FlightAware Approximate
04:49AM 52.8239 -16.4961 96° East  Level FlightAware Approximate
04:50AM 52.8075 -16.2493 96° East  Level FlightAware Approximate
04:51AM 52.7907 -16.0027 96° East  Level FlightAware Approximate
04:52AM 52.7733 -15.7563 97° East  Level FlightAware Approximate
04:53AM 52.7554 -15.5102 97° East  Level FlightAware Approximate
04:54AM 52.7370 -15.2642 97° East  Level FlightAware Approximate
04:55AM 52.7181 -15.0184 97° East  Level FlightAware Approximate
04:56AM 52.7000 -14.7726 97° East  Level FlightAware Approximate
04:57AM 52.6814 -14.5269 97° East  Level FlightAware Approximate
04:58AM 52.6624 -14.2815 97° East  Level FlightAware Approximate
04:59AM 52.6429 -14.0363 97° East  Level FlightAware Approximate
05:00AM 52.6228 -13.7913 98° East  Level FlightAware Approximate
05:01AM 52.6023 -13.5465 98° East  Level FlightAware Approximate
05:02AM 52.5812 -13.3020 98° East  Level FlightAware Approximate
05:03AM 52.5597 -13.0577 98° East  Level FlightAware Approximate
05:04AM 52.5376 -12.8137 98° East  Level FlightAware Approximate
05:05AM 52.5150 -12.5699 99° East  Level FlightAware Approximate
05:06AM 52.4920 -12.3263 99° East  Level FlightAware Approximate
05:07AM 52.4684 -12.0830 99° East  Level FlightAware Approximate
05:07AM 51.9062 -8.9583 99° East 498 573 35,500  Level FlightAware UK
05:08AM 51.9006 -8.8293 94° East 498 573 36,100 1,080 Climbing FlightAware UK
05:08AM 51.8954 -8.7013 94° East 494 568 36,600 900 Climbing FlightAware UK
05:09AM 51.8896 -8.5736 94° East 494 568 37,000 360 Climbing FlightAware UK
05:09AM 51.8837 -8.4463 94° East 496 571 37,000  Level FlightAware UK
05:10AM 51.8777 -8.3187 94° East 492 566 37,000  Level FlightAware UK
05:10AM 51.8718 -8.1906 94° East 492 566 37,000  Level FlightAware UK
05:11AM 51.8657 -8.0635 94° East 492 566 37,000  Level FlightAware UK
05:11AM 51.8597 -7.9362 94° East 492 566 37,000  Level FlightAware UK
05:12AM 51.8539 -7.8091 94° East 492 566 37,000  Level FlightAware UK
05:12AM 51.8477 -7.6822 94° East 494 568 37,000  Level FlightAware UK
05:13AM 51.8414 -7.5556 95° East 494 568 37,000  Level FlightAware UK
05:13AM 51.8328 -7.4303 96° East 492 566 37,000  Level FlightAware UK
05:14AM 51.8257 -7.3044 95° East 492 566 37,000  Level FlightAware UK
05:14AM 51.8189 -7.1785 95° East 492 566 37,000  Level FlightAware UK
05:15AM 51.8117 -7.0516 95° East 490 564 37,000  Level FlightAware UK
05:15AM 51.8042 -6.9256 95° East 492 566 37,000  Level FlightAware UK
05:16AM 51.7966 -6.7995 96° East 492 566 37,000  Level FlightAware UK
05:16AM 51.7899 -6.6736 95° East 494 568 37,000  Level FlightAware UK
05:17AM 51.7870 -6.5476 92° East 492 566 37,000  Level FlightAware UK
05:17AM 51.7834 -6.4219 93° East 492 566 37,000  Level FlightAware UK
05:18AM 51.7791 -6.2961 93° East 492 566 37,000  Level FlightAware UK
05:18AM 51.7749 -6.1705 93° East 494 568 37,000  Level FlightAware UK
05:19AM 51.7703 -6.0450 93° East 492 566 37,000  Level FlightAware UK
05:19AM 51.7651 -5.9188 94° East 494 568 37,000  Level FlightAware UK
05:20AM 51.7597 -5.7932 94° East 492 566 37,000  Level FlightAware UK
05:20AM 51.7541 -5.6676 94° East 494 568 37,000  Level FlightAware UK
05:21AM 51.7486 -5.5422 94° East 492 566 37,000  Level FlightAware UK
05:21AM 51.7433 -5.4170 94° East 492 566 37,000  Level FlightAware UK
05:22AM 51.7374 -5.2922 94° East 494 568 37,000  Level FlightAware UK
05:22AM 51.7312 -5.1676 94° East 496 571 37,000  Level FlightAware UK
05:23AM 51.7254 -5.0434 94° East 494 568 37,000  Level FlightAware UK
05:23AM 51.7194 -4.9187 94° East 498 573 37,000  Level FlightAware UK
05:24AM 51.7122 -4.7702 94° East 494 568 37,000  Level FlightAware UK
05:24AM 51.7057 -4.6466 95° East 496 571 37,000  Level FlightAware UK
05:25AM 51.6991 -4.5231 95° East 492 566 37,000  Level FlightAware UK
05:25AM 51.6927 -4.3997 95° East 496 571 37,000  Level FlightAware UK
05:26AM 51.6860 -4.2766 95° East 496 571 37,000  Level FlightAware UK
05:26AM 51.6792 -4.1538 95° East 494 568 37,000  Level FlightAware UK
05:27AM 51.6694 -3.9823 95° East 492 566 37,000  Level FlightAware UK
05:28AM 51.6581 -3.7864 95° East 496 571 37,000  Level FlightAware UK
05:28AM 51.6507 -3.6632 95° East 494 568 37,000  Level FlightAware UK
05:29AM 51.6432 -3.5434 95° East 552 635 37,000  Level FlightAware ADS-B
05:30AM 51.6323 -3.3642 96° East 552 635 37,000  Level FlightAware ADS-B
05:30AM 51.6245 -3.2422 96° East 551 634 37,000  Level FlightAware ADS-B
05:31AM 51.6135 -3.0716 96° East 551 634 37,000  Level FlightAware ADS-B
05:31AM 51.6049 -2.9414 96° East 552 635 37,000  Level FlightAware ADS-B
05:32AM 51.5963 -2.8152 96° East 551 634 37,000  Level FlightAware ADS-B
05:32AM 51.5871 -2.6812 96° East 551 634 37,000  Level FlightAware ADS-B
05:33AM 51.5782 -2.5514 96° East 550 633 37,000  Level FlightAware ADS-B
05:33AM 51.5696 -2.4296 96° East 550 633 37,000  Level FlightAware ADS-B
05:34AM 51.5602 -2.2961 96° East 549 632 37,000  Level FlightAware ADS-B
05:34AM 51.5514 -2.1754 97° East 547 629 37,000  Level FlightAware ADS-B
05:35AM 51.5422 -2.0509 97° East 546 628 37,000  Level FlightAware ADS-B
05:35AM 51.5324 -1.9227 97° East 544 626 37,000  Level FlightAware ADS-B
05:36AM 51.5231 -1.7986 97° East 543 625 37,000  Level FlightAware ADS-B
05:37AM 51.5130 -1.6673 97° East 542 624 37,000  Level FlightAware ADS-B
05:37AM 51.5034 -1.5437 97° East 542 624 37,000  Level FlightAware ADS-B
05:38AM 51.4938 -1.4206 97° East 540 621 37,000  Level FlightAware ADS-B
05:38AM 51.4840 -1.3017 97° East 539 620 37,000  Level FlightAware ADS-B
05:39AM 51.4743 -1.1835 97° East 538 619 37,000  Level FlightAware ADS-B
05:39AM 51.4640 -1.0569 97° East 538 619 37,000  Level FlightAware ADS-B
05:40AM 51.4511 -0.9033 98° East 537 618 37,000  Level FlightAware ADS-B
05:40AM 51.4406 -0.7777 98° East 535 616 37,000  Level FlightAware ADS-B
05:41AM 51.4304 -0.6605 98° East 534 615 37,000  Level FlightAware ADS-B
05:41AM 51.4200 -0.5394 98° East 533 613 37,000  Level FlightAware ADS-B
05:42AM 51.4093 -0.4221 98° East 532 612 37,000  Level FlightAware ADS-B
05:42AM 51.3985 -0.3017 98° East 531 611 37,000  Level FlightAware ADS-B
05:43AM 51.3878 -0.1814 98° East 530 610 37,000  Level FlightAware ADS-B
05:43AM 51.3770 -0.0614 98° East 529 609 37,000  Level FlightAware ADS-B
05:44AM 51.3659 0.0581 98° East 529 609 37,000  Level FlightAware ADS-B
05:44AM 51.3544 0.1816 98° East 528 608 37,000  Level FlightAware ADS-B
05:45AM 51.3422 0.3084 99° East 527 606 37,000  Level FlightAware ADS-B
05:46AM 51.3278 0.4621 98° East 527 606 37,000  Level FlightAware ADS-B
05:46AM 51.3166 0.5774 99° East 526 605 37,000  Level FlightAware ADS-B
05:47AM 51.3052 0.6922 99° East 526 605 37,000  Level FlightAware ADS-B
05:47AM 51.2934 0.8113 99° East 526 605 37,000  Level FlightAware ADS-B
05:48AM 51.2817 0.9298 99° East 527 606 37,000  Level FlightAware ADS-B
05:48AM 51.2697 1.0484 99° East 526 605 37,000  Level FlightAware ADS-B
05:49AM 51.2565 1.1745 99° East 525 604 37,000  Level FlightAware ADS-B
05:49AM 51.2362 1.2946 105° East 526 605 37,000  Level FlightAware ADS-B
05:50AM 51.1853 1.4933 105° East 492 566 37,000  Level FlightAware UK
05:51AM 51.1433 1.6453 114° Southeast 492 566 37,000  Level FlightAware UK
05:51AM 51.1127 1.7527 114° Southeast 492 566 37,000  Level FlightAware UK
05:52AM 51.0819 1.8606 114° Southeast 492 566 37,000  Level FlightAware UK
05:52AM 51.0513 1.9677 114° Southeast 494 568 37,000  Level FlightAware UK
05:53AM 51.0207 2.0747 114° Southeast 494 568 37,000  Level FlightAware UK
05:53AM 50.9899 2.1821 115° Southeast 492 566 37,000  Level FlightAware UK
05:54AM 50.9589 2.2881 115° Southeast 494 568 37,000  Level FlightAware UK
05:54AM 50.9280 2.3939 115° Southeast 494 568 37,000  Level FlightAware UK
05:55AM 50.8909 2.5205 115° Southeast 492 566 37,000  Level FlightAware UK
05:55AM 50.8601 2.6260 115° Southeast 490 564 37,000  Level FlightAware UK
05:56AM 50.8226 2.7527 115° Southeast 492 566 37,000  Level FlightAware UK
05:57AM 50.7850 2.8783 115° Southeast 492 566 37,000  Level FlightAware UK
05:57AM 50.7539 2.9829 115° Southeast 492 566 37,000  Level FlightAware UK
05:58AM 50.7228 3.0875 115° Southeast 496 571 37,000  Level FlightAware UK
05:58AM 50.6913 3.1924 115° Southeast 496 571 37,000  Level FlightAware UK
05:59AM 50.6599 3.2960 116° Southeast 494 568 37,000  Level FlightAware UK
05:59AM 50.6219 3.4198 116° Southeast 494 568 37,000  Level FlightAware UK
06:02AM 50.4775 3.8911 116° Southeast 494 568 37,000  Level FlightAware UK
06:03AM 50.4099 4.1168 115° Southeast 494 568 37,000  Level FlightAware UK
06:03AM 50.3754 4.2116 120° Southeast 496 571 37,000  Level FlightAware UK
06:04AM 50.3455 4.3166 114° Southeast 1 1 37,000  Level FlightAware UK
06:05AM 50.2607 4.5697 118° Southeast 1 1 37,000  Level FlightAware UK
06:07AM 50.1516 4.8935 118° Southeast  Level Estimated
06:14AM 49.6533 6.3223 118° Southeast  Level Estimated
06:15AM 49.5807 6.5240 119° Southeast  Level Estimated
06:16AM 49.5078 6.7251 119° Southeast  Level Estimated
06:17AM 49.4344 6.9256 119° Southeast  Level Estimated
06:18AM 49.3608 7.1255 119° Southeast  Level Estimated
06:19AM 49.2868 7.3248 120° Southeast  Level Estimated
06:20AM 49.2125 7.5235 120° Southeast  Level Estimated
06:21AM 49.1378 7.7216 120° Southeast  Level Estimated
06:22AM 49.0628 7.9191 120° Southeast  Level Estimated
06:23AM 48.9874 8.1161 120° Southeast  Level Estimated
06:24AM 48.9117 8.3124 120° Southeast  Level Estimated
06:25AM 48.8357 8.5081 120° Southeast  Level Estimated
06:26AM 48.7594 8.7032 121° Southeast  Level Estimated
06:27AM 48.6827 8.8978 121° Southeast  Level Estimated
06:28AM 48.6057 9.0917 121° Southeast  Level Estimated
06:29AM 48.5284 9.2851 121° Southeast  Level Estimated
06:30AM 48.4503 9.4788 121° Southeast  Level Estimated
06:31AM 48.3719 9.6720 121° Southeast  Level Estimated
06:32AM 48.2932 9.8646 122° Southeast  Level Estimated
06:33AM 48.2142 10.0567 122° Southeast  Level Estimated
06:34AM 48.1348 10.2481 122° Southeast  Level Estimated
06:35AM 48.0551 10.4389 122° Southeast  Level Estimated
06:36AM 47.9752 10.6291 122° Southeast  Level Estimated
06:37AM 47.8949 10.8188 122° Southeast  Level Estimated
06:38AM 47.8143 11.0078 122° Southeast  Level Estimated
06:39AM 47.7333 11.1963 123° Southeast  Level Estimated
06:40AM 47.6521 11.3842 123° Southeast  Level Estimated
06:41AM 47.5706 11.5715 123° Southeast  Level Estimated
06:42AM 47.4887 11.7582 123° Southeast  Level Estimated
06:43AM 47.4066 11.9443 123° Southeast  Level Estimated
06:44AM 47.3242 12.1299 123° Southeast  Level Estimated
06:45AM 47.2414 12.3148 123° Southeast  Level Estimated
06:46AM 47.1584 12.4992 123° Southeast  Level Estimated
06:47AM 47.0751 12.6830 124° Southeast  Level Estimated
06:48AM 46.9914 12.8663 124° Southeast  Level Estimated
06:49AM 46.9075 13.0489 124° Southeast  Level Estimated
06:50AM 46.8233 13.2310 124° Southeast  Level Estimated
06:51AM 46.7388 13.4126 124° Southeast  Level Estimated
06:52AM 46.6540 13.5935 124° Southeast  Level Estimated
06:53AM 46.5690 13.7739 124° Southeast  Level Estimated
06:54AM 46.4837 13.9537 125° Southeast  Level Estimated
06:55AM 46.3980 14.1330 125° Southeast  Level Estimated
06:56AM 46.3121 14.3117 125° Southeast  Level Estimated
06:57AM 46.2259 14.4898 125° Southeast  Level Estimated
06:58AM 46.1395 14.6674 125° Southeast  Level Estimated
06:59AM 46.0527 14.8444 125° Southeast  Level Estimated
07:00AM 45.9658 15.0209 125° Southeast  Level Estimated
07:01AM 45.8785 15.1968 125° Southeast  Level Estimated
07:02AM 45.7909 15.3722 126° Southeast  Level Estimated
07:03AM 45.7031 15.5470 126° Southeast  Level Estimated
07:04AM 45.6150 15.7212 126° Southeast  Level Estimated
07:05AM 45.5267 15.8949 126° Southeast  Level Estimated
07:06AM 45.4381 16.0681 126° Southeast  Level Estimated
07:07AM 45.3492 16.2407 126° Southeast  Level Estimated
07:08AM 45.2601 16.4128 126° Southeast  Level Estimated
07:09AM 45.1707 16.5844 126° Southeast  Level Estimated
07:10AM 45.0811 16.7554 127° Southeast  Level Estimated
07:11AM 44.9912 16.9258 127° Southeast  Level Estimated
07:12AM 44.9011 17.0957 127° Southeast  Level Estimated
07:13AM 44.8107 17.2651 127° Southeast  Level Estimated
07:14AM 44.7200 17.4340 127° Southeast  Level Estimated
07:15AM 44.6288 17.6029 127° Southeast  Level Estimated
07:16AM 44.5373 17.7714 127° Southeast  Level Estimated
07:17AM 44.4456 17.9392 127° Southeast  Level Estimated
07:18AM 44.3536 18.1066 128° Southeast  Level Estimated
07:19AM 44.2615 18.2734 128° Southeast  Level Estimated
07:20AM 44.1690 18.4397 128° Southeast  Level Estimated
07:21AM 44.0763 18.6055 128° Southeast  Level Estimated
07:22AM 43.9834 18.7708 128° Southeast  Level Estimated
07:23AM 43.8902 18.9355 128° Southeast  Level Estimated
07:24AM 43.7968 19.0997 128° Southeast  Level Estimated
07:25AM 43.7032 19.2635 128° Southeast  Level Estimated
07:26AM 43.6093 19.4267 128° Southeast  Level Estimated
07:27AM 43.5152 19.5894 129° Southeast  Level Estimated
07:28AM 43.4209 19.7516 129° Southeast  Level Estimated
07:29AM 43.3263 19.9132 129° Southeast  Level Estimated
07:30AM 43.2315 20.0744 129° Southeast  Level Estimated
07:31AM 43.1365 20.2351 129° Southeast  Level Estimated
07:32AM 43.0413 20.3953 129° Southeast  Level Estimated
07:33AM 42.9459 20.5550 129° Southeast  Level Estimated
07:34AM 42.8502 20.7142 129° Southeast  Level Estimated
07:35AM 42.7543 20.8729 129° Southeast  Level Estimated
07:36AM 42.6581 21.0311 130° Southeast  Level Estimated
07:37AM 42.5618 21.1888 130° Southeast  Level Estimated
07:38AM 42.4653 21.3460 130° Southeast  Level Estimated
07:39AM 42.3685 21.5028 130° Southeast  Level Estimated
07:40AM 42.2715 21.6590 130° Southeast  Level Estimated
07:41AM 42.1743 21.8148 130° Southeast  Level Estimated
07:42AM 42.0769 21.9701 130° Southeast  Level Estimated
07:43AM 41.9793 22.1249 130° Southeast  Level Estimated
07:44AM 41.8815 22.2793 130° Southeast  Level Estimated
07:45AM 41.7835 22.4332 130° Southeast  Level Estimated
07:46AM 41.6853 22.5866 131° Southeast  Level Estimated
07:47AM 41.5868 22.7395 131° Southeast  Level Estimated
07:48AM 41.4882 22.8920 131° Southeast  Level Estimated
07:49AM 41.3894 23.0440 131° Southeast  Level Estimated
07:50AM 41.2904 23.1956 131° Southeast  Level Estimated
07:51AM 41.1911 23.3466 131° Southeast  Level Estimated
07:52AM 41.0917 23.4973 131° Southeast  Level Estimated
07:53AM 40.9921 23.6475 131° Southeast  Level Estimated
07:54AM 40.8923 23.7972 131° Southeast  Level Estimated
07:55AM 40.7923 23.9464 131° Southeast  Level Estimated
07:56AM 40.6921 24.0953 132° Southeast  Level Estimated
07:57AM 40.5917 24.2437 132° Southeast  Level Estimated
07:58AM 40.4911 24.3916 132° Southeast  Level Estimated
07:59AM 40.3903 24.5391 132° Southeast  Level Estimated
08:00AM 40.2894 24.6861 132° Southeast  Level Estimated
08:01AM 40.1882 24.8327 132° Southeast  Level Estimated
08:02AM 40.0869 24.9789 132° Southeast  Level Estimated
08:03AM 39.9854 25.1246 132° Southeast  Level Estimated
08:04AM 39.8837 25.2699 132° Southeast  Level Estimated
08:05AM 39.7818 25.4148 132° Southeast  Level Estimated
08:06AM 39.6798 25.5592 133° Southeast  Level Estimated
08:07AM 39.5776 25.7033 133° Southeast  Level Estimated
08:08AM 39.4752 25.8468 133° Southeast  Level Estimated
08:09AM 39.3726 25.9900 133° Southeast  Level Estimated
08:10AM 39.2698 26.1328 133° Southeast  Level Estimated
08:11AM 39.1669 26.2751 133° Southeast  Level Estimated
08:12AM 39.0638 26.4170 133° Southeast  Level Estimated
08:13AM 38.9605 26.5585 133° Southeast  Level Estimated
08:14AM 38.8571 26.6996 133° Southeast  Level Estimated
08:15AM 38.7535 26.8403 133° Southeast  Level Estimated
08:16AM 38.6497 26.9806 133° Southeast  Level Estimated
08:17AM 38.5457 27.1204 134° Southeast  Level Estimated
08:18AM 38.4416 27.2599 134° Southeast  Level Estimated
08:19AM 38.3374 27.3989 134° Southeast  Level Estimated
08:20AM 38.2329 27.5376 134° Southeast  Level Estimated
08:21AM 38.1283 27.6758 134° Southeast  Level Estimated
08:22AM 38.0235 27.8137 134° Southeast  Level Estimated
08:23AM 37.9186 27.9512 134° Southeast  Level Estimated
08:24AM 37.8135 28.0883 134° Southeast  Level Estimated
08:25AM 37.7083 28.2250 134° Southeast  Level Estimated
08:26AM 37.6029 28.3612 134° Southeast  Level Estimated
08:27AM 37.4973 28.4972 134° Southeast  Level Estimated
08:28AM 37.3916 28.6327 134° Southeast  Level Estimated
08:29AM 37.2859 28.7676 135° Southeast  Level Estimated
08:30AM 37.1801 28.9021 135° Southeast  Level Estimated
08:31AM 37.0741 29.0363 135° Southeast  Level Estimated
08:32AM 36.9680 29.1700 135° Southeast  Level Estimated
08:33AM 36.8617 29.3034 135° Southeast  Level Estimated
08:34AM 36.7553 29.4365 135° Southeast  Level Estimated
08:35AM 36.6487 29.5691 135° Southeast  Level Estimated
08:36AM 36.5420 29.7014 135° Southeast  Level Estimated
08:37AM 36.4351 29.8333 135° Southeast  Level Estimated
08:38AM 36.3281 29.9649 135° Southeast  Level Estimated
08:39AM 36.2209 30.0961 135° Southeast  Level Estimated
08:40AM 36.1136 30.2270 135° Southeast  Level Estimated
08:41AM 36.0062 30.3575 135° Southeast  Level Estimated
08:42AM 35.8986 30.4876 136° Southeast  Level Estimated
08:43AM 35.7908 30.6174 136° Southeast  Level Estimated
08:44AM 35.6830 30.7468 136° Southeast  Level Estimated
08:45AM 35.5750 30.8759 136° Southeast  Level Estimated
08:46AM 35.4668 31.0046 136° Southeast  Level Estimated
08:47AM 35.3586 31.1330 136° Southeast  Level Estimated
08:48AM 35.2501 31.2610 136° Southeast  Level Estimated
08:49AM 35.1416 31.3888 136° Southeast  Level Estimated
08:50AM 35.0329 31.5161 136° Southeast  Level Estimated
08:51AM 34.9241 31.6431 136° Southeast  Level Estimated
08:52AM 34.8152 31.7698 136° Southeast  Level Estimated
08:53AM 34.7061 31.8962 136° Southeast  Level Estimated
08:54AM 34.5969 32.0222 136° Southeast  Level Estimated
08:55AM 34.4875 32.1479 137° Southeast  Level Estimated
08:56AM 34.3781 32.2732 137° Southeast  Level Estimated
08:57AM 34.2685 32.3983 137° Southeast  Level Estimated
08:58AM 34.1587 32.5229 137° Southeast  Level Estimated
08:59AM 34.0489 32.6473 137° Southeast  Level Estimated
09:00AM 33.9389 32.7714 137° Southeast  Level Estimated
09:01AM 33.8288 32.8951 137° Southeast  Level Estimated
09:02AM 33.7186 33.0186 137° Southeast  Level Estimated
09:03AM 33.6083 33.1417 137° Southeast  Level Estimated
09:04AM 33.4978 33.2644 137° Southeast  Level Estimated
09:05AM 33.3872 33.3869 137° Southeast  Level Estimated
09:06AM 33.2766 33.5091 137° Southeast  Level Estimated
09:07AM 33.1657 33.6309 137° Southeast  Level Estimated
09:08AM 33.0548 33.7525 137° Southeast  Level Estimated
09:09AM 32.9437 33.8737 137° Southeast  Level Estimated
09:10AM 32.8326 33.9946 138° Southeast  Level Estimated
09:11AM 32.7213 34.1153 138° Southeast  Level Estimated
09:12AM 32.6099 34.2356 138° Southeast  Level Estimated
09:13AM 32.4983 34.3556 138° Southeast  Level Estimated
09:14AM 32.3867 34.4753 138° Southeast  Level Estimated
09:15AM 32.2750 34.5948 138° Southeast  Level Estimated
09:16AM 32.1631 34.7139 138° Southeast  Level Estimated
09:17AM 32.0512 34.8328 138° Southeast  Level Estimated
09:18AM 32.0095 34.8769 138° Southeast  Level Estimated
09:19AM 32.0095 34.8769 270° West  Level Estimated
09:20AM 32.0095 34.8769 270° West  Level Estimated
09:21AM 32.0095 34.8769 270° West  Level Estimated
09:22AM 32.0095 34.8769 270° West  Level Estimated
09:23AM 32.0095 34.8769 270° West  Level Estimated
09:24AM 32.0095 34.8769 270° West  Level Estimated
09:25AM 32.0095 34.8769 270° West  Level Estimated
09:26AM 32.0095 34.8769 270° West  Level Estimated
09:27AM 32.0095 34.8769 270° West  Level Estimated
09:28AM 32.0095 34.8769 270° West  Level Estimated
09:29AM 32.0095 34.8769 270° West  Level Estimated
09:30AM 32.0095 34.8769 270° West  Level Estimated
09:31AM 32.0095 34.8769 270° West  Level Estimated
09:32AM 32.0095 34.8769 270° West  Level Estimated
09:33AM 32.0095 34.8769 270° West  Level Estimated
09:34AM 32.0095 34.8769 270° West  Level Estimated
09:35AM 32.0095 34.8769 270° West  Level Estimated
09:36AM 32.0095 34.8769 270° West  Level Estimated
09:37AM 32.0095 34.8769 270° West  Level Estimated